Time;durP1;ratioP1;P1;durP2;ratioP2;P2;SDS_P1;SDS_P2;PMS_P1;PMS_P2;Temp;Humidity;BMP_temperature;BMP_pressure;BME280_temperature;BME280_humidity;BME280_pressure;Samples;Min_cycle;Max_cycle;Signal;HPM_P1;HPM_P2
2023/06/26 00:02:12;;;;;;;11.87;9.77;;;15.40;99.90;16.70;97028.00;;;;5029028;28;20205;-83
2023/06/26 00:05:03;;;;;;;14.00;9.87;;;15.20;99.90;16.90;97034.00;;;;5022747;28;20216;-85
2023/06/26 00:07:52;;;;;;;13.67;9.37;;;15.10;99.90;16.50;97019.00;;;;5024134;28;20740;-84
2023/06/26 00:10:40;;;;;;;14.07;11.23;;;15.10;99.90;16.70;97029.00;;;;5021122;28;20226;-83
2023/06/26 00:13:29;;;;;;;14.70;9.70;;;14.90;99.90;16.60;97023.00;;;;5029705;28;20216;-84
2023/06/26 00:16:18;;;;;;;12.17;10.73;;;14.90;99.90;16.70;97028.00;;;;5024403;28;20234;-84
2023/06/26 00:19:08;;;;;;;11.20;9.13;;;14.90;99.90;16.50;97023.00;;;;5026244;28;20704;-83
2023/06/26 00:21:58;;;;;;;15.30;10.60;;;14.90;99.90;16.90;97017.00;;;;5028330;28;20221;-84
2023/06/26 00:24:47;;;;;;;10.60;9.03;;;14.80;99.90;16.80;97011.00;;;;5021231;28;20217;-83
2023/06/26 00:27:35;;;;;;;16.37;9.77;;;14.90;99.90;16.60;97016.00;;;;5030336;28;20223;-84
2023/06/26 00:30:24;;;;;;;12.73;10.00;;;14.80;99.90;16.80;97008.00;;;;5026234;28;20596;-84
2023/06/26 00:33:13;;;;;;;15.17;10.17;;;14.90;99.90;16.70;97015.00;;;;5030703;28;20586;-84
2023/06/26 00:36:02;;;;;;;14.47;10.40;;;14.80;99.90;16.70;97009.00;;;;5021335;28;20243;-84
2023/06/26 00:38:52;;;;;;;12.43;9.93;;;14.80;99.90;16.50;96999.00;;;;5022642;28;20201;-85
2023/06/26 00:41:41;;;;;;;13.03;10.47;;;14.80;99.90;16.30;97010.00;;;;5029048;28;20244;-85
2023/06/26 00:44:29;;;;;;;11.57;9.70;;;14.70;99.90;16.60;97005.00;;;;5021522;28;20205;-85
2023/06/26 00:47:18;;;;;;;15.83;10.07;;;14.70;99.90;16.40;97008.00;;;;5029776;28;20209;-86
2023/06/26 00:50:08;;;;;;;11.50;8.73;;;14.60;99.90;16.20;97011.00;;;;5029672;28;20221;-84
2023/06/26 00:53:00;;;;;;;15.07;9.47;;;14.60;99.90;16.00;96991.00;;;;5023073;28;20669;-84
2023/06/26 00:55:50;;;;;;;13.03;9.63;;;14.50;99.90;16.30;96998.00;;;;5029489;28;20223;-84
2023/06/26 00:58:39;;;;;;;11.53;9.87;;;14.40;99.90;16.50;96997.00;;;;5028801;28;20204;-84
2023/06/26 01:01:27;;;;;;;10.20;9.10;;;14.50;99.90;16.50;96998.00;;;;5028366;28;20229;-85
2023/06/26 01:04:18;;;;;;;12.60;9.60;;;14.50;99.90;16.30;97005.00;;;;5024578;28;20201;-84
2023/06/26 01:07:07;;;;;;;12.83;9.53;;;14.50;99.90;16.30;96998.00;;;;5026536;28;20205;-84
2023/06/26 01:09:57;;;;;;;14.53;9.53;;;14.40;99.90;16.40;97001.00;;;;5017719;28;20209;-84
2023/06/26 01:12:47;;;;;;;10.97;9.40;;;14.40;99.90;16.30;96990.00;;;;5028403;28;20193;-84
2023/06/26 01:15:36;;;;;;;13.93;8.77;;;14.40;99.90;16.00;96989.00;;;;5029179;28;20229;-85
2023/06/26 01:18:26;;;;;;;12.80;10.10;;;14.30;99.90;16.20;96990.00;;;;5024844;28;20212;-84
2023/06/26 01:21:16;;;;;;;10.07;8.63;;;14.30;99.90;16.20;96987.00;;;;5028789;28;20217;-84
2023/06/26 01:24:20;;;;;;;12.73;10.00;;;14.30;99.90;16.00;96977.00;;;;5023978;28;20216;-84
2023/06/26 01:27:11;;;;;;;11.93;9.90;;;14.30;99.90;16.20;96988.00;;;;5018587;28;20209;-84
2023/06/26 01:30:04;;;;;;;11.13;9.77;;;14.20;99.90;16.10;96975.00;;;;5025824;28;20194;-85
2023/06/26 01:32:53;;;;;;;13.23;10.27;;;14.30;99.90;16.10;96973.00;;;;5026919;28;20632;-84
2023/06/26 01:35:42;;;;;;;13.30;9.67;;;14.20;99.90;15.80;96975.00;;;;5026176;28;21962;-84
2023/06/26 01:38:31;;;;;;;15.23;10.67;;;14.20;99.90;15.60;96964.00;;;;5022995;28;20212;-84
2023/06/26 01:41:20;;;;;;;12.30;10.50;;;14.10;99.90;15.40;96965.00;;;;5026478;28;20597;-84
2023/06/26 01:44:24;;;;;;;12.80;10.50;;;14.00;99.90;15.70;96954.00;;;;5020892;28;20267;-84
2023/06/26 01:47:20;;;;;;;11.50;9.87;;;13.90;99.90;15.60;96964.00;;;;5027312;28;20197;-84
2023/06/26 01:50:16;;;;;;;18.80;11.33;;;13.90;99.90;15.80;96959.00;;;;5023157;28;20260;-84
2023/06/26 01:53:12;;;;;;;17.37;10.80;;;13.90;99.90;16.00;96962.00;;;;5026425;28;20194;-83
2023/06/26 01:56:08;;;;;;;13.07;10.00;;;13.90;99.90;16.20;96964.00;;;;5028601;28;20236;-84
2023/06/26 01:58:57;;;;;;;12.57;10.27;;;14.00;99.90;16.30;96964.00;;;;5030270;28;20201;-85
2023/06/26 02:01:48;;;;;;;12.97;10.80;;;14.00;99.90;16.20;96965.00;;;;5017152;28;20217;-84
2023/06/26 02:04:37;;;;;;;11.97;9.13;;;14.10;99.90;16.30;96955.00;;;;5020482;28;20629;-83
2023/06/26 02:07:26;;;;;;;15.37;9.77;;;14.10;99.90;15.90;96956.00;;;;5024765;28;20589;-83
2023/06/26 02:10:14;;;;;;;13.67;9.53;;;14.10;99.90;15.70;96960.00;;;;5008049;28;20222;-84
2023/06/26 02:13:03;;;;;;;11.40;8.97;;;14.00;99.90;15.60;96951.00;;;;5021091;28;20240;-84
2023/06/26 02:15:52;;;;;;;16.83;9.63;;;13.90;99.90;15.80;96944.00;;;;5014674;28;20228;-84
2023/06/26 02:18:42;;;;;;;14.53;10.77;;;13.80;99.90;16.10;96943.00;;;;5023020;28;20821;-83
2023/06/26 02:21:31;;;;;;;11.80;9.83;;;13.90;99.90;15.70;96936.00;;;;5020951;28;20222;-84
2023/06/26 02:24:20;;;;;;;12.77;9.43;;;13.90;99.90;15.30;96944.00;;;;5023227;28;20602;-84
2023/06/26 02:27:09;;;;;;;11.40;9.77;;;13.80;99.90;15.30;96948.00;;;;5024576;28;20209;-84
2023/06/26 02:29:58;;;;;;;10.93;9.17;;;13.70;99.90;15.70;96947.00;;;;5029579;28;20205;-84
2023/06/26 02:32:46;;;;;;;12.03;9.93;;;13.70;99.90;15.60;96950.00;;;;5024298;28;20207;-84
2023/06/26 02:35:37;;;;;;;15.90;10.50;;;13.70;99.90;15.50;96956.00;;;;5022145;28;20296;-84
2023/06/26 02:38:25;;;;;;;11.33;9.50;;;13.70;99.90;15.70;96954.00;;;;5020044;28;20197;-84
2023/06/26 02:41:14;;;;;;;18.27;9.70;;;13.70;99.90;15.70;96957.00;;;;5028869;28;20218;-84
2023/06/26 02:44:03;;;;;;;12.67;9.83;;;13.70;99.90;15.30;96957.00;;;;5027150;28;20197;-85
2023/06/26 02:46:52;;;;;;;12.63;9.77;;;13.70;99.90;15.40;96958.00;;;;5024599;28;20205;-83
2023/06/26 02:49:41;;;;;;;11.60;9.27;;;13.60;99.90;15.50;96955.00;;;;5029466;28;20686;-84
2023/06/26 02:52:31;;;;;;;12.20;9.63;;;13.60;99.90;15.50;96949.00;;;;5019921;28;20202;-84
2023/06/26 02:55:20;;;;;;;12.77;10.20;;;13.60;99.90;15.30;96950.00;;;;5018393;28;20206;-84
2023/06/26 02:58:10;;;;;;;10.27;9.20;;;13.50;99.90;15.20;96945.00;;;;5021293;28;20209;-84
2023/06/26 03:00:59;;;;;;;13.70;10.10;;;13.50;99.90;14.90;96954.00;;;;5020328;28;20224;-84
2023/06/26 03:03:48;;;;;;;11.93;10.10;;;13.40;99.90;15.10;96942.00;;;;5021275;28;20205;-84
2023/06/26 03:06:36;;;;;;;15.47;10.70;;;13.30;99.90;15.10;96944.00;;;;5026212;28;20193;-83
2023/06/26 03:09:27;;;;;;;11.23;9.43;;;13.30;99.90;14.70;96947.00;;;;5027093;28;20208;-84
2023/06/26 03:12:15;;;;;;;11.40;10.03;;;13.30;99.90;14.50;96941.00;;;;5024729;28;20202;-83
2023/06/26 03:15:05;;;;;;;16.17;10.27;;;13.20;99.90;15.00;96948.00;;;;5020887;28;20595;-83
2023/06/26 03:17:54;;;;;;;12.93;10.97;;;13.20;99.90;15.30;96953.00;;;;5019265;28;20210;-84
2023/06/26 03:20:42;;;;;;;14.83;10.57;;;13.20;99.90;15.30;96952.00;;;;5014548;28;20225;-83
2023/06/26 03:23:31;;;;;;;12.43;10.20;;;13.20;99.90;15.50;96957.00;;;;5022138;28;20570;-83
2023/06/26 03:26:28;;;;;;;14.07;10.40;;;13.30;99.90;15.40;96948.00;;;;5030630;28;20587;-84
2023/06/26 03:29:17;;;;;;;11.23;9.73;;;;;15.40;96956.00;;;;5019897;28;20205;-84
2023/06/26 03:32:07;;;;;;;14.37;11.37;;;;;15.40;96952.00;;;;5024503;28;20765;-83
2023/06/26 03:34:56;;;;;;;17.60;10.87;;;;;15.40;96949.00;;;;5018227;28;20217;-83
2023/06/26 03:37:45;;;;;;;14.47;11.43;;;;;15.50;96950.00;;;;5026920;28;20249;-84
2023/06/26 03:40:34;;;;;;;11.00;9.97;;;;;15.90;96948.00;;;;5013340;28;20228;-84
2023/06/26 03:43:25;;;;;;;13.07;10.57;;;;;15.80;96943.00;;;;5025427;28;20581;-83
2023/06/26 03:46:14;;;;;;;13.30;10.13;;;;;15.40;96947.00;;;;5025368;28;20693;-84
2023/06/26 03:49:03;;;;;;;14.37;10.70;;;;;15.20;96944.00;;;;5028514;28;20706;-83
2023/06/26 03:51:52;;;;;;;13.20;9.87;;;;;15.00;96948.00;;;;5029581;28;20221;-83
2023/06/26 03:54:41;;;;;;;18.97;10.90;;;;;15.20;96942.00;;;;5029663;28;20213;-84
2023/06/26 03:57:30;;;;;;;13.13;9.87;;;;;15.00;96937.00;;;;5026783;28;20243;-84
2023/06/26 04:00:21;;;;;;;11.87;10.40;;;;;15.10;96934.00;;;;5027377;28;20229;-84
2023/06/26 04:03:11;;;;;;;16.53;10.33;;;;;15.00;96936.00;;;;5025197;28;20201;-83
2023/06/26 04:06:00;;;;;;;11.70;10.40;;;;;14.80;96934.00;;;;5025356;28;20251;-85
2023/06/26 04:08:49;;;;;;;13.60;10.87;;;;;14.70;96940.00;;;;5030638;28;20212;-84
2023/06/26 04:11:38;;;;;;;14.27;10.83;;;;;15.00;96942.00;;;;5021776;28;21682;-83
2023/06/26 04:14:27;;;;;;;14.87;11.47;;;;;15.00;96937.00;;;;5023250;28;20208;-83
2023/06/26 04:17:17;;;;;;;16.37;11.77;;;;;15.00;96947.00;;;;5030606;28;20231;-83
2023/06/26 04:20:08;;;;;;;13.37;9.87;;;;;15.20;96935.00;;;;5027610;28;20221;-84
2023/06/26 04:22:57;;;;;;;13.10;11.03;;;;;15.30;96955.00;;;;5022613;28;20209;-85
2023/06/26 04:25:46;;;;;;;14.23;11.03;;;;;15.20;96941.00;;;;5029323;28;20204;-83
2023/06/26 04:28:36;;;;;;;11.43;9.70;;;;;15.40;96946.00;;;;5029780;28;20201;-84
2023/06/26 04:31:25;;;;;;;13.50;11.37;;;;;15.20;96945.00;;;;5024741;28;20228;-84
2023/06/26 04:34:16;;;;;;;12.07;9.87;;;;;15.70;96951.00;;;;5026587;28;20209;-84
2023/06/26 04:37:05;;;;;;;16.40;11.30;;;;;15.90;96952.00;;;;5026820;28;20228;-84
2023/06/26 04:39:54;;;;;;;14.37;11.70;;;;;16.00;96950.00;;;;5023148;28;20567;-84
2023/06/26 04:42:43;;;;;;;13.63;10.83;;;;;16.20;96947.00;;;;5026051;28;20468;-84
2023/06/26 04:45:32;;;;;;;12.80;10.23;;;;;16.00;96938.00;;;;5023095;28;20209;-84
2023/06/26 04:48:21;;;;;;;15.40;12.53;;;;;16.40;96944.00;;;;5020659;28;20198;-83
2023/06/26 04:51:12;;;;;;;14.87;11.10;;;;;16.50;96943.00;;;;5030348;28;20267;-84
2023/06/26 04:54:01;;;;;;;17.57;12.53;;;;;16.50;96942.00;;;;5014878;28;20210;-85
2023/06/26 04:56:50;;;;;;;16.60;11.23;;;;;17.10;96960.00;;;;5023335;28;20308;-86
2023/06/26 04:59:39;;;;;;;13.23;11.13;;;;;16.80;96958.00;;;;5025165;28;20208;-82
2023/06/26 05:02:29;;;;;;;15.23;12.07;;;;;16.80;96963.00;;;;5021747;28;20220;-83
2023/06/26 05:05:18;;;;;;;14.60;10.27;;;;;17.10;96951.00;;;;5020516;28;20232;-84
2023/06/26 05:08:18;;;;;;;13.80;11.70;;;;;17.50;96940.00;;;;5026022;28;20205;-83
2023/06/26 05:11:07;;;;;;;11.97;9.47;;;;;17.60;96945.00;;;;5015444;28;20603;-84
2023/06/26 05:13:56;;;;;;;12.03;9.47;;;;;17.60;96941.00;;;;5027875;28;20751;-84
2023/06/26 05:16:45;;;;;;;14.03;10.37;;;;;17.90;96938.00;;;;5024474;28;20204;-84
2023/06/26 05:19:34;;;;;;;12.33;9.80;;;;;18.00;96935.00;;;;5022312;28;20599;-85
2023/06/26 05:22:24;;;;;;;13.50;11.30;;;;;18.10;96934.00;;;;5026025;28;20577;-83
2023/06/26 05:25:15;;;;;;;14.23;9.87;;;;;18.20;96931.00;;;;5026529;28;20217;-84
2023/06/26 05:28:05;;;;;;;14.97;10.47;;;;;18.60;96920.00;;;;5022875;28;20202;-84
2023/06/26 05:30:54;;;;;;;15.03;10.37;;;;;18.50;96929.00;;;;5019506;28;20229;-84
2023/06/26 05:33:45;;;;;;;15.07;9.60;;;;;18.70;96928.00;;;;5017083;28;20205;-84
2023/06/26 05:36:35;;;;;;;12.77;10.33;;;;;19.30;96931.00;;;;5024173;28;20216;-83
2023/06/26 05:39:25;;;;;;;16.27;10.37;;;;;19.40;96935.00;;;;5021577;28;20773;-84
2023/06/26 05:42:17;;;;;;;14.07;10.83;;;;;19.50;96933.00;;;;5023397;28;20205;-83
2023/06/26 05:45:06;;;;;;;13.67;10.70;;;;;19.90;96934.00;;;;5021423;28;20304;-83
2023/06/26 05:47:55;;;;;;;12.87;10.53;;;;;20.10;96940.00;;;;5026040;28;20569;-83
2023/06/26 05:50:45;;;;;;;16.57;10.77;;;;;19.70;96940.00;;;;5027463;28;20221;-84
2023/06/26 05:53:35;;;;;;;15.60;10.87;;;;;19.80;96933.00;;;;5029236;28;20274;-84
2023/06/26 05:56:25;;;;;;;16.47;11.03;;;;;20.20;96941.00;;;;5031340;28;20209;-84
2023/06/26 05:59:16;;;;;;;14.30;10.57;;;;;20.50;96942.00;;;;5029440;28;20220;-84
2023/06/26 06:02:05;;;;;;;15.77;9.37;;;;;21.10;96941.00;;;;5027446;28;20217;-85
2023/06/26 06:04:55;;;;;;;11.27;9.60;;;;;21.50;96937.00;;;;5031760;28;20284;-84
2023/06/26 06:07:44;;;;;;;17.87;10.03;;;;;21.60;96939.00;;;;5032172;28;20299;-83
2023/06/26 06:10:33;;;;;;;13.50;9.97;;;;;21.70;96927.00;;;;5031056;28;20240;-84
2023/06/26 06:13:22;;;;;;;15.33;11.00;;;;;21.70;96928.00;;;;5031517;28;20205;-84
2023/06/26 06:16:12;;;;;;;12.70;9.63;;;;;22.10;96924.00;;;;5022881;28;20582;-84
2023/06/26 06:19:03;;;;;;;12.20;9.50;;;;;22.40;96927.00;;;;5027059;28;20221;-87
2023/06/26 06:21:52;;;;;;;11.43;9.60;;;;;22.50;96922.00;;;;5027291;28;20666;-87
2023/06/26 06:24:41;;;;;;;15.80;9.70;;;;;22.30;96928.00;;;;5029749;28;20209;-87
2023/06/26 06:27:31;;;;;;;11.93;9.40;;;;;21.90;96921.00;;;;5022189;28;20561;-88
2023/06/26 06:30:20;;;;;;;15.13;9.97;;;;;22.30;96924.00;;;;5029288;28;20271;-88
2023/06/26 06:33:15;;;;;;;10.53;8.53;;;;;23.00;96928.00;;;;5024582;28;20224;-87
2023/06/26 06:36:05;;;;;;;11.27;9.53;;;;;23.30;96922.00;;;;5027539;28;20251;-87
2023/06/26 06:38:54;;;;;;;13.27;10.17;;;;;23.40;96925.00;;;;5030682;28;20260;-88
2023/06/26 06:41:43;;;;;;;10.77;9.03;;;;;23.60;96919.00;;;;5022758;28;20225;-88
2023/06/26 06:44:33;;;;;;;10.50;9.03;;;;;23.50;96927.00;;;;5030282;28;20617;-88
2023/06/26 06:47:22;;;;;;;12.97;8.90;;;;;23.80;96918.00;;;;5027053;28;20241;-87
2023/06/26 06:50:13;;;;;;;16.20;10.33;;;;;23.90;96930.00;;;;5012111;28;20228;-86
2023/06/26 06:53:02;;;;;;;11.57;9.40;;;;;23.80;96909.00;;;;5030657;28;20205;-88
2023/06/26 06:55:54;;;;;;;14.77;9.50;;;;;23.90;96920.00;;;;5016445;28;20230;-88
2023/06/26 06:58:46;;;;;;;10.63;9.10;;;;;23.90;96911.00;;;;5019950;28;20653;-88
2023/06/26 07:01:35;;;;;;;13.87;9.30;;;;;24.20;96920.00;;;;5023192;28;20690;-88
2023/06/26 07:04:24;;;;;;;12.67;8.87;;;;;24.50;96911.00;;;;5023613;28;20209;-88
2023/06/26 07:07:18;;;;;;;11.90;8.80;;;;;24.60;96914.00;;;;5013668;28;20221;-90
2023/06/26 07:10:10;;;;;;;9.70;8.33;;;;;24.80;96911.00;;;;5011277;28;20221;-88
2023/06/26 07:12:59;;;;;;;9.77;8.07;;;;;25.00;96907.00;;;;5015266;28;20255;-88
2023/06/26 07:15:56;;;;;;;11.70;8.10;;;;;25.20;96918.00;;;;5014965;28;20207;-88
2023/06/26 07:18:46;;;;;;;10.10;7.83;;;;;25.40;96920.00;;;;5017643;28;21178;-90
2023/06/26 07:21:35;;;;;;;9.70;8.47;;;;;25.60;96917.00;;;;5012505;28;20638;-88
2023/06/26 07:24:26;;;;;;;12.43;8.97;;;;;25.80;96915.00;;;;5014223;28;20221;-87
2023/06/26 07:38:29;;;;;;;8.60;7.70;;;;;26.20;96905.00;;;;4963980;28;20244;-89
2023/06/26 07:41:22;;;;;;;14.33;8.33;;;;;26.30;96903.00;;;;5014533;28;20224;-87
2023/06/26 07:44:18;;;;;;;10.13;8.50;;;;;26.70;96908.00;;;;5015656;28;20224;-88
2023/06/26 07:47:15;;;;;;;9.83;8.27;;;;;27.00;96908.00;;;;5020988;28;20244;-90
2023/06/26 07:50:05;;;;;;;10.07;7.87;;;;;26.80;96898.00;;;;5019093;28;20252;-88
2023/06/26 07:53:08;;;;;;;10.67;8.07;;;;;27.20;96898.00;;;;5024723;28;20205;-88
2023/06/26 07:56:21;;;;;;;9.50;7.57;;;;;27.20;96895.00;;;;5019241;28;20728;-88
2023/06/26 07:59:46;;;;;;;8.53;6.57;;;;;27.60;96902.00;;;;5023575;28;20724;-88
2023/06/26 08:09:59;;;;;;;7.23;6.53;;;;;28.10;96901.00;;;;4951443;28;20212;-87
2023/06/26 08:12:56;;;;;;;6.17;5.57;;;;;28.40;96895.00;;;;4953202;28;20208;-87
2023/06/26 08:16:23;;;;;;;6.70;6.00;;;;;28.70;96892.00;;;;4951052;28;20217;-87
2023/06/26 08:19:13;;;;;;;8.17;6.17;;;;;28.90;96897.00;;;;4953460;28;20301;-87
2023/06/26 08:22:17;;;;;;;8.10;6.33;;;;;28.90;96897.00;;;;4957198;28;20689;-88
2023/06/26 08:25:15;;;;;;;10.90;7.27;;;;;29.00;96897.00;;;;4965709;28;21778;-88
2023/06/26 08:31:39;;;;;;;8.47;6.43;;;;;29.50;96891.00;;;;4964884;28;20229;-88
2023/06/26 08:34:28;;;;;;;9.67;6.00;;;;;29.20;96896.00;;;;5023817;28;20218;-88
2023/06/26 08:37:21;;;;;;;7.63;5.77;;;;;29.40;96890.00;;;;5021291;28;20204;-89
2023/06/26 08:40:11;;;;;;;9.77;5.37;;;;;29.80;96893.00;;;;5018167;28;20237;-89
2023/06/26 08:43:00;;;;;;;9.27;5.57;;;;;30.00;96896.00;;;;5021446;28;20206;-89
2023/06/26 08:45:51;;;;;;;6.33;5.20;;;;;30.00;96892.00;;;;5021424;28;20796;-89
2023/06/26 08:48:42;;;;;;;9.63;8.10;;;;;29.80;96888.00;;;;5019404;28;20206;-88
2023/06/26 08:51:34;;;;;;;6.63;5.37;;;;;29.90;96892.00;;;;5015917;28;20223;-88
2023/06/26 08:54:34;;;;;;;5.63;5.10;;;;;30.40;96884.00;;;;5023266;28;20575;-89
2023/06/26 08:57:27;;;;;;;6.73;6.03;;;;;30.60;96885.00;;;;5021581;28;20298;-90
2023/06/26 09:00:17;;;;;;;6.57;5.63;;;;;30.70;96874.00;;;;5019993;28;20231;-88
2023/06/26 09:03:07;;;;;;;7.67;5.73;;;;;30.80;96877.00;;;;5016600;28;20684;-89
2023/06/26 09:06:04;;;;;;;7.10;5.40;;;;;30.70;96876.00;;;;5023244;28;21631;-88
2023/06/26 09:08:54;;;;;;;5.77;5.17;;;;;30.90;96870.00;;;;5016954;28;20227;-88
2023/06/26 09:11:47;;;;;;;6.17;5.50;;;;;30.80;96868.00;;;;5020318;28;20224;-88
2023/06/26 09:14:38;;;;;;;5.67;5.03;;;;;30.80;96871.00;;;;5020013;28;20213;-87
2023/06/26 09:17:34;;;;;;;8.07;5.17;;;;;31.20;96856.00;;;;5022590;28;20215;-89
2023/06/26 09:20:28;;;;;;;7.20;5.07;;;;;31.40;96849.00;;;;5027927;28;20263;-88
2023/06/26 09:23:18;;;;;;;5.40;4.47;;;;;31.50;96857.00;;;;5018935;28;20207;-88
2023/06/26 09:26:07;;;;;;;7.00;5.47;;;;;31.60;96849.00;;;;5017018;28;20302;-89
2023/06/26 09:28:58;;;;;;;6.63;4.77;;;;;31.40;96854.00;;;;5024426;28;20270;-88
2023/06/26 09:31:48;;;;;;;6.80;4.80;;;;;31.50;96857.00;;;;5021857;28;20291;-88
2023/06/26 09:34:42;;;;;;;7.17;6.10;;;;;31.80;96853.00;;;;5025950;28;20299;-89
2023/06/26 09:37:34;;;;;;;6.10;5.07;;;;;32.10;96842.00;;;;5021034;28;20711;-88
2023/06/26 09:40:29;;;;;;;5.07;4.57;;;;;31.50;96847.00;;;;5020287;28;20606;-87
2023/06/26 09:43:18;;;;;;;5.73;5.07;;;;;31.90;96846.00;;;;5029775;28;20205;-88
2023/06/26 09:46:09;;;;;;;5.43;4.93;;;;;31.50;96836.00;;;;5027508;28;20204;-88
2023/06/26 09:49:04;;;;;;;5.50;5.00;;;;;32.60;96842.00;;;;5020726;28;20238;-87
2023/06/26 09:51:53;;;;;;;5.03;4.53;;;;;32.10;96827.00;;;;5021064;28;20230;-90
2023/06/26 09:54:44;;;;;;;5.33;4.83;;;;;31.60;96824.00;;;;5026256;28;20212;-87
2023/06/26 09:57:36;;;;;;;5.40;4.90;;;;;32.30;96831.00;;;;5018479;28;20257;-89
2023/06/26 10:00:26;;;;;;;5.67;4.77;;;;;32.80;96830.00;;;;5035105;28;20234;-91
2023/06/26 10:03:16;;;;;;;6.83;5.23;;;;;32.40;96829.00;;;;5020947;28;20270;-88
2023/06/26 10:06:06;;;;;;;5.07;4.57;;;;;33.20;96821.00;;;;5026863;28;20216;-90
2023/06/26 10:08:56;;;;;;;5.43;4.93;;;;;33.60;96824.00;;;;5025115;28;20558;-89
2023/06/26 10:11:50;;;;;;;5.78;5.22;;;;;33.50;96825.00;;;;5022252;28;20267;-88
2023/06/26 10:14:39;;;;;;;5.63;4.67;;;;;33.90;96820.00;;;;5025964;28;20209;-88
2023/06/26 10:17:31;;;;;;;4.80;4.40;;;;;33.80;96826.00;;;;5019286;28;20215;-88
2023/06/26 10:20:22;;;;;;;5.00;4.47;;;;;33.80;96817.00;;;;5026619;28;20216;-90
2023/06/26 10:23:11;;;;;;;5.53;5.03;;;;;34.80;96809.00;;;;5021540;28;20266;-87
2023/06/26 10:26:02;;;;;;;5.18;4.25;;;;;34.20;96819.00;;;;5019484;28;20209;-88
2023/06/26 10:28:53;;;;;;;6.38;5.10;;;;;34.20;96815.00;;;;5022703;28;20265;-85
2023/06/26 10:31:45;;;;;;;5.15;4.07;;;;;34.80;96812.00;;;;5017001;28;20241;-88
2023/06/26 10:34:35;;;;;;;6.15;4.45;;;;;34.60;96828.00;;;;5020902;28;20220;-89
2023/06/26 10:37:43;;;;;;;5.40;4.35;;;;;34.10;96834.00;;;;5018199;28;20212;-88
2023/06/26 10:40:42;;;;;;;12.55;5.63;;;;;34.10;96787.00;;;;5018431;28;20227;-87
2023/06/26 10:43:32;;;;;;;5.20;4.18;;;;;35.10;96790.00;;;;5026032;28;20195;-88
2023/06/26 10:46:23;;;;;;;5.43;4.15;;;;;35.30;96807.00;;;;5025180;28;20268;-87
2023/06/26 10:49:14;;;;;;;6.03;4.60;;;;;34.50;96790.00;;;;5024805;28;20224;-87
2023/06/26 10:52:04;;;;;;;4.57;3.72;;;;;34.20;96813.00;;;;5017131;28;20219;-89
2023/06/26 10:54:56;;;;;;;5.03;4.53;;;;;34.40;96829.00;;;;5020826;28;20688;-88
2023/06/26 10:57:49;;;;;;;5.45;4.00;;;;;34.20;96826.00;;;;5029080;28;20204;-88
2023/06/26 11:00:38;;;;;;;4.32;3.97;;;;;34.90;96789.00;;;;5025848;28;20223;-89
2023/06/26 11:03:32;;;;;;;5.10;4.63;;;;;35.70;96798.00;;;;5030321;28;20210;-88
2023/06/26 11:06:22;;;;;;;8.43;4.90;;;;;36.20;96771.00;;;;5025230;28;20202;-89
2023/06/26 11:09:14;;;;;;;4.88;4.38;;;;;36.10;96778.00;;;;5025948;28;20237;-89
2023/06/26 11:12:06;;;;;;;5.35;4.35;;;;;36.50;96774.00;;;;5021349;28;20283;-88
2023/06/26 11:14:55;;;;;;;5.70;4.00;;;;;37.10;96768.00;;;;5023826;28;20223;-89
2023/06/26 11:17:45;;;;;;;4.88;4.38;;;;;36.90;96769.00;;;;5023764;28;20205;-91
2023/06/26 11:20:34;;;;;;;5.00;4.43;;;;;35.40;96765.00;;;;5022590;28;20233;-89
2023/06/26 11:23:24;;;;;;;9.10;4.88;;;;;34.40;96768.00;;;;5019122;28;20204;-90
2023/06/26 11:26:18;;;;;;;4.95;4.45;;;;;35.70;96761.00;;;;5024347;28;20204;-89
2023/06/26 11:29:09;;;;;;;5.45;4.05;;;;;36.40;96757.00;;;;5020300;28;20565;-90
2023/06/26 11:32:05;;;;;;;4.65;4.25;;;;;37.30;96756.00;;;;5023439;28;20236;-90
2023/06/26 11:34:54;;;;;;;5.93;4.88;;;;;37.40;96748.00;;;;5016808;28;20197;-89
2023/06/26 11:37:44;;;;;;;6.07;4.05;;;;;37.40;96746.00;;;;5022313;28;20209;-90
2023/06/26 11:40:33;;;;;;;4.82;4.28;;;;;35.70;96805.00;;;;5016830;28;20222;-90
2023/06/26 11:43:24;;;;;;;5.18;3.78;;;;;36.20;96801.00;;;;5018848;28;20206;-90
2023/06/26 11:46:15;;;;;;;5.32;4.28;;;;;35.30;96812.00;;;;5023467;28;20296;-90
2023/06/26 11:49:05;;;;;;;3.63;3.38;;;;;35.70;96736.00;;;;5017710;28;20205;-88
2023/06/26 11:51:57;;;;;;;4.82;4.32;;;;;33.90;96730.00;;;;5019877;28;20230;-88
2023/06/26 11:54:47;;;;;;;5.28;4.78;;;;;34.50;96799.00;;;;5021480;28;20249;-88
2023/06/26 11:57:36;;;;;;;4.93;4.45;;;;;35.80;96740.00;;;;5017551;28;20355;-89
2023/06/26 12:00:25;;;;;;;5.38;4.20;;;;;37.50;96742.00;;;;5022873;28;20239;-90
2023/06/26 12:03:16;;;;;;;4.15;3.75;;;;;37.80;96746.00;;;;5022075;28;20241;-89
2023/06/26 12:06:06;;;;;;;4.93;4.20;;;;;36.90;96741.00;;;;5022901;28;20261;-90
2023/06/26 12:08:56;;;;;;;3.90;3.47;;;;;36.90;96733.00;;;;5017698;28;20693;-88
2023/06/26 12:11:48;;;;;;;4.45;4.05;;;;;37.50;96762.00;;;;5028470;28;20225;-89
2023/06/26 12:14:38;;;;;;;4.40;3.78;;;;;35.80;96759.00;;;;5020452;28;20228;-89
2023/06/26 12:17:27;;;;;;;4.30;3.90;;;;;37.40;96729.00;;;;5020938;28;20205;-90
2023/06/26 12:20:22;;;;;;;4.65;4.18;;;;;37.20;96797.00;;;;5026827;28;20217;-90
2023/06/26 12:23:14;;;;;;;6.00;4.22;;;;;37.20;96724.00;;;;5017677;28;20210;-90
2023/06/26 12:26:19;;;;;;;5.35;4.10;;;;;37.00;96797.00;;;;5020721;28;20747;-90
2023/06/26 12:29:11;;;;;;;4.68;4.07;;;;;36.50;96797.00;;;;5016999;28;20213;-87
2023/06/26 12:32:00;;;;;;;7.88;5.10;;;;;37.40;96727.00;;;;5022220;28;20259;-86
2023/06/26 12:34:50;;;;;;;3.90;3.55;;;;;39.10;96723.00;;;;5018653;28;20690;-88
2023/06/26 12:37:44;;;;;;;4.32;3.92;;;;;38.00;96786.00;;;;5014548;28;20205;-87
2023/06/26 12:40:33;;;;;;;4.68;4.20;;;;;35.90;96791.00;;;;5022834;28;20304;-87
2023/06/26 12:43:27;;;;;;;4.57;4.03;;;;;36.30;96727.00;;;;5022781;28;20216;-89
2023/06/26 12:46:16;;;;;;;4.10;3.70;;;;;38.10;96718.00;;;;5024831;28;20205;-89
2023/06/26 12:49:07;;;;;;;5.63;4.40;;;;;36.50;96719.00;;;;5019161;28;20197;-92
2023/06/26 12:52:00;;;;;;;7.35;5.93;;;;;37.30;96735.00;;;;5022423;28;20260;-90
2023/06/26 12:54:55;;;;;;;7.22;5.75;;;;;37.90;96734.00;;;;5028634;28;20212;-91
2023/06/26 12:57:45;;;;;;;7.32;6.63;;;;;34.70;96801.00;;;;5020077;28;20223;-90
2023/06/26 13:00:34;;;;;;;5.47;4.78;;;;;33.50;96721.00;;;;5011044;28;20241;-90
2023/06/26 13:03:24;;;;;;;6.72;5.97;;;;;35.50;96796.00;;;;5022866;28;20208;-90
2023/06/26 13:06:14;;;;;;;6.70;5.55;;;;;35.00;96748.00;;;;5027107;28;20697;-89
2023/06/26 13:09:04;;;;;;;7.78;5.95;;;;;34.40;96787.00;;;;5021359;28;20260;-90
2023/06/26 13:11:55;;;;;;;7.55;6.85;;;;;34.40;96782.00;;;;5016736;28;20295;-90
2023/06/26 13:14:44;;;;;;;6.90;6.20;;;;;34.00;96790.00;;;;5020281;28;20761;-88
2023/06/26 13:17:33;;;;;;;5.55;5.05;;;;;34.00;96783.00;;;;5017546;28;20204;-89
2023/06/26 13:20:22;;;;;;;7.93;6.22;;;;;33.10;96773.00;;;;5019942;28;20620;-86
2023/06/26 13:23:12;;;;;;;7.45;5.72;;;;;33.90;96778.00;;;;5022320;28;20665;-87
2023/06/26 13:26:02;;;;;;;7.65;6.10;;;;;35.00;96768.00;;;;5018119;28;20867;-89
2023/06/26 13:28:52;;;;;;;5.13;4.68;;;;;35.70;96743.00;;;;5019235;28;20240;-88
2023/06/26 13:31:41;;;;;;;6.63;5.85;;;;;35.80;96717.00;;;;5018602;28;20228;-88
2023/06/26 13:34:30;;;;;;;5.93;5.43;;;;;36.80;96703.00;;;;5021289;28;20314;-87
2023/06/26 13:37:19;;;;;;;6.05;5.38;;;;;34.90;96772.00;;;;5018798;28;20208;-87
2023/06/26 13:40:10;;;;;;;6.50;5.90;;;;;35.90;96765.00;;;;5020244;28;20224;-88
2023/06/26 13:42:59;;;;;;;10.88;5.32;;;;;34.40;96764.00;;;;5014419;28;20635;-87
2023/06/26 13:45:50;;;;;;;5.90;5.25;;;;;35.60;96708.00;;;;5017031;28;20975;-89
2023/06/26 13:48:39;;;;;;;7.20;5.85;;;;;35.10;96703.00;;;;5020645;28;20208;-90
2023/06/26 13:51:28;;;;;;;6.50;5.82;;;;;37.40;96712.00;;;;5017700;28;20281;-89
2023/06/26 13:54:18;;;;;;;6.95;6.25;;;;;36.30;96779.00;;;;5021667;28;20264;-88
2023/06/26 13:57:07;;;;;;;8.52;6.18;;;;;34.40;96730.00;;;;5014930;28;20876;-88
2023/06/26 13:59:58;;;;;;;6.53;5.57;;;;;36.50;96709.00;;;;5015541;28;20210;-90
2023/06/26 14:02:48;;;;;;;5.70;5.20;;;;;37.80;96701.00;;;;5018421;28;20210;-91